Terminal Aerodrome Forecast
Issued by NWS Amarillo, TX

Home | Current Version | Previous Version | Text Only | Print | Product List | Glossary On
Versions: 1 2 3 4 5 6 7 8 9 10 11 12 13 14 15 16 17 18 19 20 21 22 23 24 25
000
FTUS44 KAMA 291740
TAFAMA
TAF
KAMA 291740Z 2918/3018 14008KT P6SM VCSH SCT025 OVC035
      TEMPO 2918/2921 SHRA OVC025
     FM292100 14008KT P6SM VCTS OVC045CB
      TEMPO 2921/3001 VRB15G30KT 3SM TSRA OVC035CB
     FM300300 08006KT 6SM -RA BR OVC080=

USA.gov is the U.S. government's official web portal to all federal, state and local government web resources and services.